createdAt,value
2018-05-06T00:02:12.512Z,100792.52
2018-05-06T00:04:42.693Z,100792.52
2018-05-06T00:07:12.954Z,100792.52
2018-05-06T00:09:43.123Z,100792.52
2018-05-06T00:12:13.326Z,100792.52
2018-05-06T00:14:43.286Z,100792.52
2018-05-06T00:17:13.347Z,100792.52
2018-05-06T00:19:43.524Z,100792.52
2018-05-06T00:22:13.769Z,100792.52
2018-05-06T00:24:44.077Z,100792.52
2018-05-06T00:27:14.367Z,100792.52
2018-05-06T00:29:44.618Z,100792.52
2018-05-06T00:32:14.949Z,100792.52
2018-05-06T00:34:45.203Z,100792.52
2018-05-06T00:37:15.460Z,100792.52
2018-05-06T00:39:45.683Z,100792.52
2018-05-06T00:42:15.923Z,100792.52
2018-05-06T00:44:46.078Z,100792.52
2018-05-06T00:47:16.216Z,100792.52
2018-05-06T00:49:46.349Z,100792.52
2018-05-06T00:52:16.695Z,100792.52
2018-05-06T00:54:46.936Z,100792.52
2018-05-06T00:57:17.159Z,100792.52
2018-05-06T00:59:48.369Z,100792.52
2018-05-06T01:02:19.760Z,100792.52
2018-05-06T01:04:50.023Z,100792.52
2018-05-06T01:07:20.423Z,100792.52
2018-05-06T01:09:50.647Z,100792.52
2018-05-06T01:12:21.073Z,100792.52
2018-05-06T01:14:51.213Z,100792.52
2018-05-06T01:17:21.504Z,100792.52
2018-05-06T01:19:51.525Z,100792.52
2018-05-06T01:22:21.788Z,100792.52
2018-05-06T01:24:52.009Z,100792.52
2018-05-06T01:27:22.160Z,100792.52
2018-05-06T01:29:52.370Z,100792.52
2018-05-06T01:32:22.782Z,100792.52
2018-05-06T01:34:53.029Z,100792.52
2018-05-06T01:37:23.293Z,100792.52
2018-05-06T01:39:53.546Z,100792.52
2018-05-06T01:42:23.682Z,100792.52
2018-05-06T01:44:53.965Z,100792.52
2018-05-06T01:47:24.248Z,100792.52
2018-05-06T01:49:54.524Z,100792.52
2018-05-06T01:52:24.685Z,100792.52
2018-05-06T01:54:54.968Z,100792.52
2018-05-06T01:57:25.332Z,100792.52
2018-05-06T01:59:55.630Z,100792.52
2018-05-06T02:02:25.930Z,100792.52
2018-05-06T02:04:56.137Z,100792.52
2018-05-06T02:07:26.231Z,100792.52
2018-05-06T02:09:56.511Z,100792.52
2018-05-06T02:12:26.894Z,100792.52
2018-05-06T02:14:57.220Z,100792.52
2018-05-06T02:17:27.492Z,100792.52
2018-05-06T02:19:57.653Z,100792.52
2018-05-06T02:22:27.996Z,100792.52
2018-05-06T02:24:58.146Z,100792.52
2018-05-06T02:27:28.427Z,100792.52
2018-05-06T02:29:58.510Z,100792.52
2018-05-06T02:32:28.730Z,100792.52
2018-05-06T02:34:58.922Z,100792.52
2018-05-06T02:37:29.091Z,100792.52
2018-05-06T02:39:59.389Z,100792.52
2018-05-06T02:42:29.650Z,100792.52
2018-05-06T02:44:59.855Z,100792.52
2018-05-06T02:47:31.139Z,100792.52
2018-05-06T02:50:01.513Z,100792.52
2018-05-06T02:52:31.704Z,100792.52
2018-05-06T02:55:01.890Z,100792.52
2018-05-06T02:57:32.137Z,100792.52
2018-05-06T03:00:02.220Z,100792.52
2018-05-06T03:02:32.487Z,100792.52
2018-05-06T03:05:02.585Z,100792.52
2018-05-06T03:07:32.264Z,100777.14
2018-05-06T03:10:01.900Z,100778.46
2018-05-06T03:12:31.453Z,100782.41
2018-05-06T03:15:02.151Z,100782.80
2018-05-06T03:17:31.835Z,100784.98
2018-05-06T03:20:02.513Z,100789.72
2018-05-06T03:22:32.033Z,100780.48
2018-05-06T03:25:01.687Z,100787.01
2018-05-06T03:27:31.457Z,100788.25
2018-05-06T03:30:00.986Z,100789.93
2018-05-06T03:32:30.639Z,100786.83
2018-05-06T03:35:00.547Z,100785.84
2018-05-06T03:37:30.258Z,100785.36
2018-05-06T03:39:59.979Z,100792.73
2018-05-06T03:42:29.613Z,100792.26
2018-05-06T03:44:59.300Z,100804.47
2018-05-06T03:47:29.012Z,100801.75
2018-05-06T03:49:58.807Z,100807.83
2018-05-06T03:52:28.547Z,100803.83
2018-05-06T03:54:58.317Z,100805.98
2018-05-06T03:58:38.380Z,100804.61
2018-05-06T04:01:08.125Z,100808.14
2018-05-06T04:03:37.807Z,100804.19
2018-05-06T04:06:07.621Z,100801.56
2018-05-06T04:08:37.390Z,100796.77
2018-05-06T04:11:07.161Z,100803.80
2018-05-06T04:13:36.772Z,100805.56
2018-05-06T04:16:06.431Z,100802.06
2018-05-06T04:18:36.185Z,100799.43
2018-05-06T04:21:05.893Z,100809.52
2018-05-06T04:23:36.709Z,100803.77
2018-05-06T04:26:06.405Z,100802.87
2018-05-06T04:28:36.248Z,100798.92
2018-05-06T04:31:06.027Z,100805.06
2018-05-06T04:33:35.609Z,100801.47
2018-05-06T04:36:05.339Z,100808.89
2018-05-06T04:38:35.130Z,100814.64
2018-05-06T04:41:04.836Z,100811.11
2018-05-06T04:43:34.602Z,100808.89
2018-05-06T04:46:04.283Z,100813.66
2018-05-06T04:48:33.892Z,100809.14
2018-05-06T04:51:03.654Z,100812.46
2018-05-06T04:53:33.473Z,100812.28
2018-05-06T04:56:03.264Z,100807.75
2018-05-06T04:58:32.875Z,100813.67
2018-05-06T05:01:02.538Z,100819.59
2018-05-06T05:03:32.309Z,100813.16
2018-05-06T05:06:02.052Z,100815.53
2018-05-06T05:08:31.786Z,100809.95
2018-05-06T05:11:01.621Z,100809.64
2018-05-06T05:13:31.328Z,100808.53
2018-05-06T05:16:00.833Z,100813.94
2018-05-06T05:18:30.579Z,100811.05
2018-05-06T05:21:00.270Z,100815.12
2018-05-06T05:23:29.864Z,100809.05
2018-05-06T05:25:59.603Z,100815.73
2018-05-06T05:28:29.263Z,100815.75
2018-05-06T05:30:59.004Z,100814.48
2018-05-06T05:33:28.706Z,100811.09
2018-05-06T05:35:58.506Z,100814.27
2018-05-06T05:38:28.299Z,100807.28
2018-05-06T05:40:58.059Z,100800.98
2018-05-06T05:43:27.778Z,100808.20
2018-05-06T05:45:57.631Z,100805.56
2018-05-06T05:48:27.284Z,100812.19
2018-05-06T05:50:57.002Z,100808.30
2018-05-06T05:53:26.724Z,100809.38
2018-05-06T05:55:56.365Z,100811.47
2018-05-06T05:58:26.086Z,100809.17
2018-05-06T06:00:55.796Z,100811.91
2018-05-06T06:03:25.556Z,100806.64
2018-05-06T06:05:55.266Z,100815.36
2018-05-06T06:08:25.218Z,100813.67
2018-05-06T06:10:54.879Z,100807.67
2018-05-06T06:13:24.588Z,100813.85
2018-05-06T06:15:54.287Z,100813.66
2018-05-06T06:18:23.960Z,100822.78
2018-05-06T06:20:53.751Z,100823.80
2018-05-06T06:23:24.442Z,100820.04
2018-05-06T06:25:54.121Z,100824.02
2018-05-06T06:28:23.843Z,100831.91
2018-05-06T06:30:53.461Z,100832.27
2018-05-06T06:33:23.415Z,100836.09
2018-05-06T06:35:53.036Z,100833.28
2018-05-06T06:38:22.787Z,100837.06
2018-05-06T06:40:52.549Z,100835.22
2018-05-06T06:43:22.265Z,100832.98
2018-05-06T06:45:51.906Z,100833.79
2018-05-06T06:48:21.680Z,100832.81
2018-05-06T06:50:51.369Z,100835.30
2018-05-06T06:53:21.151Z,100833.73
2018-05-06T06:55:51.068Z,100827.40
2018-05-06T06:58:20.885Z,100831.05
2018-05-06T07:00:50.503Z,100832.24
2018-05-06T07:03:20.262Z,100830.98
2018-05-06T07:05:50.044Z,100826.98
2018-05-06T07:08:19.847Z,100834.27
2018-05-06T07:10:49.623Z,100821.21
2018-05-06T07:13:19.365Z,100824.30
2018-05-06T07:15:49.021Z,100818.26
2018-05-06T07:18:18.869Z,100821.38
2018-05-06T07:20:48.443Z,100819.22
2018-05-06T07:23:18.413Z,100824.15
2018-05-06T07:25:48.171Z,100822.82
2018-05-06T07:28:17.790Z,100829.30
2018-05-06T07:30:47.473Z,100827.30
2018-05-06T07:33:17.105Z,100826.56
2018-05-06T07:35:46.832Z,100832.89
2018-05-06T07:38:16.625Z,100836.08
2018-05-06T07:40:46.349Z,100837.02
2018-05-06T07:43:15.937Z,100830.36
2018-05-06T07:45:45.657Z,100835.94
2018-05-06T07:48:15.355Z,100833.11
2018-05-06T07:50:45.046Z,100838.50
2018-05-06T07:53:14.658Z,100828.98
2018-05-06T07:55:44.403Z,100826.20
2018-05-06T07:58:14.123Z,100827.05
2018-05-06T08:00:43.720Z,100821.61
2018-05-06T08:03:13.533Z,100825.28
2018-05-06T08:05:43.063Z,100824.59
2018-05-06T08:08:12.815Z,100820.27
2018-05-06T08:10:42.661Z,100815.94
2018-05-06T08:13:12.466Z,100820.09
2018-05-06T08:15:42.208Z,100827.00
2018-05-06T08:18:11.859Z,100821.96
2018-05-06T08:20:41.597Z,100819.16
2018-05-06T08:23:11.202Z,100816.73
2018-05-06T08:25:40.887Z,100810.52
2018-05-06T08:28:11.728Z,100812.87
2018-05-06T08:30:41.458Z,100817.16
2018-05-06T08:33:11.254Z,100816.14
2018-05-06T08:35:40.825Z,100810.56
2018-05-06T08:38:10.445Z,100814.45
2018-05-06T08:40:40.206Z,100808.80
2018-05-06T08:43:11.025Z,100808.78
2018-05-06T08:45:40.864Z,100810.30
2018-05-06T08:48:10.514Z,100806.77
2018-05-06T08:50:40.317Z,100810.21
2018-05-06T08:53:09.958Z,100800.15
2018-05-06T08:55:39.477Z,100806.85
2018-05-06T08:58:09.204Z,100811.53
2018-05-06T09:00:38.898Z,100809.64
2018-05-06T09:03:08.575Z,100813.75
2018-05-06T09:05:38.314Z,100812.58
2018-05-06T09:08:08.883Z,100818.88
2018-05-06T09:10:38.626Z,100811.61
2018-05-06T09:13:08.214Z,100816.56
2018-05-06T09:15:38.004Z,100815.64
2018-05-06T09:18:08.706Z,100818.52
2018-05-06T09:20:38.357Z,100822.07
2018-05-06T09:23:08.319Z,100819.40
2018-05-06T09:25:38.068Z,100811.69
2018-05-06T09:28:07.840Z,100810.98
2018-05-06T09:30:37.763Z,100814.73
2018-05-06T09:33:07.493Z,100810.12
2018-05-06T09:35:37.313Z,100800.87
2018-05-06T09:38:07.025Z,100810.13
2018-05-06T09:40:36.745Z,100815.30
2018-05-06T09:43:06.123Z,100817.41
2018-05-06T09:45:35.796Z,100798.16
2018-05-06T09:48:05.525Z,100806.12
2018-05-06T09:50:35.405Z,100806.23
2018-05-06T09:53:05.198Z,100802.22
2018-05-06T09:55:34.986Z,100803.92
2018-05-06T09:58:04.843Z,100797.80
2018-05-06T10:00:34.611Z,100795.51
2018-05-06T10:03:04.471Z,100798.78
2018-05-06T10:05:34.092Z,100798.41
2018-05-06T10:08:03.829Z,100792.13
2018-05-06T10:10:33.622Z,100787.31
2018-05-06T10:13:03.276Z,100780.23
2018-05-06T10:15:32.868Z,100789.77
2018-05-06T10:18:02.634Z,100792.45
2018-05-06T10:20:32.395Z,100779.24
2018-05-06T10:23:02.089Z,100779.57
2018-05-06T10:25:31.897Z,100784.17
2018-05-06T10:28:01.589Z,100780.72
2018-05-06T10:30:31.391Z,100778.74
2018-05-06T10:33:01.041Z,100785.83
2018-05-06T10:35:31.853Z,100783.05
2018-05-06T10:38:01.550Z,100779.26
2018-05-06T10:40:31.295Z,100770.14
2018-05-06T10:43:01.014Z,100768.91
2018-05-06T10:45:30.852Z,100773.17
2018-05-06T10:48:00.506Z,100768.67
2018-05-06T10:50:30.237Z,100760.23
2018-05-06T10:52:59.843Z,100762.33
2018-05-06T10:55:29.638Z,100747.63
2018-05-06T10:57:59.280Z,100747.48
2018-05-06T11:00:28.940Z,100749.28
2018-05-06T11:02:58.775Z,100734.59
2018-05-06T11:05:28.452Z,100745.70
2018-05-06T11:07:58.175Z,100737.72
2018-05-06T11:10:27.988Z,100734.55
2018-05-06T11:12:57.645Z,100731.05
2018-05-06T11:15:27.243Z,100725.58
2018-05-06T11:17:56.904Z,100728.30
2018-05-06T11:20:26.529Z,100731.73
2018-05-06T11:22:58.372Z,100731.49
2018-05-06T11:25:27.988Z,100722.53
2018-05-06T11:27:57.720Z,100716.89
2018-05-06T11:30:27.573Z,100709.76
2018-05-06T11:32:57.243Z,100712.16
2018-05-06T11:35:26.959Z,100706.78
2018-05-06T11:37:56.721Z,100701.31
2018-05-06T11:40:26.331Z,100698.44
2018-05-06T11:42:55.997Z,100698.22
2018-05-06T11:45:25.853Z,100684.67
2018-05-06T11:47:55.533Z,100686.97
2018-05-06T11:50:25.267Z,100693.25
2018-05-06T11:52:55.158Z,100677.34
2018-05-06T11:55:24.804Z,100682.48
2018-05-06T11:57:54.526Z,100676.84
2018-05-06T12:00:24.150Z,100683.73
2018-05-06T12:02:54.050Z,100672.41
2018-05-06T12:05:23.851Z,100669.97
2018-05-06T12:07:53.601Z,100675.57
2018-05-06T12:10:24.269Z,100672.02
2018-05-06T12:12:54.080Z,100663.94
2018-05-06T12:15:23.742Z,100665.30
2018-05-06T12:17:53.554Z,100658.81
2018-05-06T12:20:23.212Z,100650.96
2018-05-06T12:22:53.115Z,100656.58
2018-05-06T12:25:22.957Z,100660.64
2018-05-06T12:27:52.758Z,100660.86
2018-05-06T12:30:22.639Z,100653.87
2018-05-06T12:32:52.328Z,100656.33
2018-05-06T12:35:23.060Z,100641.44
2018-05-06T12:37:52.780Z,100645.05
2018-05-06T12:40:22.482Z,100641.45
2018-05-06T12:42:52.146Z,100646.75
2018-05-06T12:45:21.866Z,100635.40
2018-05-06T12:47:51.704Z,100632.80
2018-05-06T12:50:21.504Z,100630.48
2018-05-06T12:52:51.266Z,100633.87
2018-05-06T12:55:21.045Z,100629.37
2018-05-06T12:57:50.868Z,100622.34
2018-05-06T13:00:20.569Z,100628.30
2018-05-06T13:02:50.427Z,100631.86
2018-05-06T13:05:20.071Z,100622.08
2018-05-06T13:07:49.800Z,100628.05
2018-05-06T13:10:19.791Z,100622.83
2018-05-06T13:12:49.553Z,100624.81
2018-05-06T13:15:19.290Z,100625.00
2018-05-06T13:17:49.064Z,100618.44
2018-05-06T13:20:18.906Z,100620.69
2018-05-06T13:22:48.767Z,100614.84
2018-05-06T13:25:18.317Z,100614.41
2018-05-06T13:27:48.278Z,100621.91
2018-05-06T13:30:17.908Z,100614.83
2018-05-06T13:32:47.665Z,100616.63
2018-05-06T13:35:17.420Z,100615.18
2018-05-06T13:37:47.009Z,100615.11
2018-05-06T13:40:16.800Z,100613.34
2018-05-06T13:42:46.801Z,100616.67
2018-05-06T13:45:16.540Z,100605.22
2018-05-06T13:47:46.513Z,100604.50
2018-05-06T13:50:16.242Z,100603.94
2018-05-06T13:52:45.973Z,100604.92
2018-05-06T13:55:15.775Z,100594.33
2018-05-06T13:57:45.804Z,100600.99
2018-05-06T14:00:15.547Z,100598.34
2018-05-06T14:02:45.239Z,100592.52
2018-05-06T14:05:15.056Z,100602.58
2018-05-06T14:07:44.833Z,100604.36
2018-05-06T14:10:14.472Z,100595.62
2018-05-06T14:12:44.338Z,100598.27
2018-05-06T14:15:14.020Z,100593.91
2018-05-06T14:17:43.830Z,100582.80
2018-05-06T14:20:13.645Z,100588.47
2018-05-06T14:22:43.355Z,100583.05
2018-05-06T14:25:13.020Z,100578.98
2018-05-06T14:27:42.787Z,100573.10
2018-05-06T14:30:12.572Z,100563.56
2018-05-06T14:32:42.278Z,100578.07
2018-05-06T14:35:12.147Z,100576.37
2018-05-06T14:37:41.792Z,100572.77
2018-05-06T14:43:20.830Z,100588.36
2018-05-06T14:45:50.572Z,100568.81
2018-05-06T14:48:20.442Z,100579.94
2018-05-06T14:50:51.095Z,100572.77
2018-05-06T14:53:20.753Z,100561.75
2018-05-06T14:55:50.547Z,100568.94
2018-05-06T14:58:20.253Z,100563.25
2018-05-06T15:00:50.895Z,100568.61
2018-05-06T15:03:20.706Z,100569.53
2018-05-06T15:05:50.428Z,100569.08
2018-05-06T15:08:21.087Z,100563.50
2018-05-06T15:10:50.911Z,100570.20
2018-05-06T15:13:20.610Z,100567.47
2018-05-06T15:15:50.313Z,100564.25
2018-05-06T15:18:20.060Z,100566.01
2018-05-06T15:20:49.730Z,100569.08
2018-05-06T15:23:19.533Z,100576.15
2018-05-06T15:25:49.233Z,100566.06
2018-05-06T15:28:19.054Z,100569.98
2018-05-06T15:30:48.789Z,100576.02
2018-05-06T15:33:18.798Z,100572.64
2018-05-06T15:35:48.527Z,100563.37
2018-05-06T15:38:18.379Z,100571.60
2018-05-06T15:40:48.088Z,100567.38
2018-05-06T15:43:17.900Z,100564.22
2018-05-06T15:45:47.644Z,100563.27
2018-05-06T15:48:17.302Z,100571.22
2018-05-06T15:50:47.101Z,100568.61
2018-05-06T15:53:16.816Z,100564.23
2018-05-06T15:55:46.607Z,100563.51
2018-05-06T15:58:16.440Z,100558.31
2018-05-06T16:00:46.154Z,100560.22
2018-05-06T16:03:26.827Z,100558.77
2018-05-06T16:05:56.469Z,100553.08
2018-05-06T16:08:26.308Z,100557.85
2018-05-06T16:10:55.979Z,100558.69
2018-05-06T16:13:25.671Z,100552.52
2018-05-06T16:15:55.390Z,100549.00
2018-05-06T16:18:24.971Z,100553.57
2018-05-06T16:20:54.652Z,100558.66
2018-05-06T16:23:25.483Z,100552.01
2018-05-06T16:25:55.145Z,100549.92
2018-05-06T16:28:24.825Z,100551.40
2018-05-06T16:30:54.475Z,100562.36
2018-05-06T16:33:24.374Z,100557.53
2018-05-06T16:35:54.127Z,100557.30
2018-05-06T16:38:24.019Z,100558.67
2018-05-06T16:40:53.757Z,100553.32
2018-05-06T16:43:23.438Z,100543.02
2018-05-06T16:45:53.318Z,100546.98
2018-05-06T16:48:23.028Z,100553.60
2018-05-06T16:50:52.903Z,100555.83
2018-05-06T16:53:22.532Z,100554.67
2018-05-06T16:55:52.615Z,100557.05
2018-05-06T16:58:22.172Z,100552.51
2018-05-06T17:00:51.982Z,100557.11
2018-05-06T17:03:21.879Z,100553.20
2018-05-06T17:05:51.806Z,100563.75
2018-05-06T17:08:21.730Z,100559.56
2018-05-06T17:10:51.309Z,100561.70
2018-05-06T17:13:20.977Z,100563.45
2018-05-06T17:15:50.750Z,100568.73
2018-05-06T17:18:20.573Z,100569.91
2018-05-06T17:20:50.430Z,100569.09
2018-05-06T17:23:20.132Z,100566.24
2018-05-06T17:25:49.821Z,100565.81
2018-05-06T17:28:19.604Z,100573.16
2018-05-06T17:30:49.114Z,100570.53
2018-05-06T17:33:19.117Z,100572.67
2018-05-06T17:35:48.854Z,100575.70
2018-05-06T17:38:18.613Z,100571.84
2018-05-06T17:40:48.311Z,100578.41
2018-05-06T17:43:18.129Z,100584.70
2018-05-06T17:45:47.739Z,100587.97
2018-05-06T17:48:17.487Z,100586.75
2018-05-06T17:50:47.273Z,100582.63
2018-05-06T17:53:16.999Z,100585.09
2018-05-06T17:55:46.946Z,100583.48
2018-05-06T17:58:16.738Z,100589.14
2018-05-06T18:00:46.514Z,100589.86
2018-05-06T18:03:16.232Z,100587.25
2018-05-06T18:05:46.065Z,100594.98
2018-05-06T18:08:15.857Z,100599.25
2018-05-06T18:10:45.566Z,100597.86
2018-05-06T18:13:15.265Z,100594.16
2018-05-06T18:15:45.031Z,100596.55
2018-05-06T18:18:14.696Z,100605.31
2018-05-06T18:20:44.618Z,100607.17
2018-05-06T18:23:14.287Z,100606.50
2018-05-06T18:25:43.921Z,100615.91
2018-05-06T18:28:13.743Z,100612.23
2018-05-06T18:30:43.435Z,100616.53
2018-05-06T18:33:13.129Z,100612.98
2018-05-06T18:35:42.876Z,100618.48
2018-05-06T18:38:12.624Z,100624.66
2018-05-06T18:40:42.458Z,100625.64
2018-05-06T18:43:12.266Z,100630.55
2018-05-06T18:45:41.985Z,100632.89
2018-05-06T18:48:11.699Z,100631.05
2018-05-06T18:50:41.389Z,100633.95
2018-05-06T18:53:11.268Z,100633.53
2018-05-06T18:55:40.923Z,100638.47
2018-05-06T18:58:10.651Z,100643.73
2018-05-06T19:00:40.362Z,100634.84
2018-05-06T19:03:10.173Z,100636.53
2018-05-06T19:05:39.906Z,100637.74
2018-05-06T19:08:09.786Z,100639.66
2018-05-06T19:10:39.878Z,100643.14
2018-05-06T19:13:09.693Z,100639.59
2018-05-06T19:15:39.669Z,100640.56
2018-05-06T19:18:09.408Z,100638.27
2018-05-06T19:20:39.097Z,100639.08
2018-05-06T19:23:08.899Z,100641.17
2018-05-06T19:25:38.723Z,100642.41
2018-05-06T19:28:08.623Z,100637.63
2018-05-06T19:30:38.634Z,100647.27
2018-05-06T19:33:08.400Z,100644.29
2018-05-06T19:35:38.263Z,100636.45
2018-05-06T19:38:08.386Z,100636.92
2018-05-06T19:40:38.116Z,100644.25
2018-05-06T19:43:07.775Z,100648.20
2018-05-06T19:45:37.560Z,100642.30
2018-05-06T19:48:07.337Z,100649.70
2018-05-06T19:50:37.090Z,100649.25
2018-05-06T19:53:06.810Z,100648.37
2018-05-06T19:55:36.661Z,100646.63
2018-05-06T19:58:06.362Z,100647.42
2018-05-06T20:00:36.044Z,100651.78
2018-05-06T20:03:05.912Z,100649.12
2018-05-06T20:05:35.583Z,100653.08
2018-05-06T20:08:05.423Z,100655.87
2018-05-06T20:10:35.217Z,100658.12
2018-05-06T20:13:05.016Z,100660.92
2018-05-06T20:15:34.893Z,100664.39
2018-05-06T20:18:04.717Z,100664.70
2018-05-06T20:20:34.509Z,100659.87
2018-05-06T20:23:04.290Z,100668.30
2018-05-06T20:25:33.977Z,100661.81
2018-05-06T20:28:03.709Z,100666.20
2018-05-06T20:30:33.400Z,100658.66
2018-05-06T20:33:03.140Z,100664.30
2018-05-06T20:35:32.973Z,100663.22
2018-05-06T20:38:02.602Z,100660.44
2018-05-06T20:40:32.405Z,100664.41
2018-05-06T20:43:02.085Z,100665.86
2018-05-06T20:45:31.777Z,100665.86
2018-05-06T20:48:01.486Z,100661.53
2018-05-06T20:50:31.044Z,100660.44
2018-05-06T20:53:00.811Z,100667.80
2018-05-06T20:55:30.589Z,100671.78
2018-05-06T20:58:00.266Z,100658.58
2018-05-06T21:00:29.974Z,100663.88
2018-05-06T21:02:59.772Z,100665.18
2018-05-06T21:05:29.251Z,100665.58
2018-05-06T21:07:58.902Z,100662.12
2018-05-06T21:10:28.719Z,100664.02
2018-05-06T21:12:58.528Z,100663.45
2018-05-06T21:15:28.167Z,100661.43
2018-05-06T21:18:01.726Z,100664.67
2018-05-06T21:20:31.506Z,100657.71
2018-05-06T21:23:01.136Z,100656.80
2018-05-06T21:25:30.798Z,100659.42
2018-05-06T21:28:00.591Z,100657.49
2018-05-06T21:30:31.198Z,100667.16
2018-05-06T21:33:00.832Z,100665.69
2018-05-06T21:35:30.696Z,100664.41
2018-05-06T21:38:00.343Z,100662.73
2018-05-06T21:40:29.964Z,100655.25
2018-05-06T21:42:59.704Z,100662.10
2018-05-06T21:45:29.848Z,100655.23
2018-05-06T21:47:59.443Z,100663.17
2018-05-06T21:50:29.305Z,100658.89
2018-05-06T21:52:58.985Z,100653.20
2018-05-06T21:55:28.580Z,100657.16
2018-05-06T21:57:58.231Z,100659.03
2018-05-06T22:00:27.948Z,100657.76
2018-05-06T22:02:57.610Z,100658.36
2018-05-06T22:05:27.261Z,100656.78
2018-05-06T22:07:57.032Z,100664.48
2018-05-06T22:10:26.814Z,100663.22
2018-05-06T22:12:56.645Z,100659.66
2018-05-06T22:15:26.394Z,100662.80
2018-05-06T22:17:56.175Z,100669.88
2018-05-06T22:20:25.865Z,100668.19
2018-05-06T22:22:55.605Z,100665.59
2018-05-06T22:25:25.445Z,100667.06
2018-05-06T22:27:55.248Z,100667.23
2018-05-06T22:30:24.980Z,100666.06
2018-05-06T22:32:54.813Z,100665.23
2018-05-06T22:35:24.535Z,100668.48
2018-05-06T22:37:54.200Z,100674.91
2018-05-06T22:40:23.819Z,100673.27
2018-05-06T22:42:53.633Z,100666.34
2018-05-06T22:45:23.404Z,100671.21
2018-05-06T22:47:52.916Z,100669.48
2018-05-06T22:50:22.556Z,100669.48
2018-05-06T22:52:52.279Z,100662.92
2018-05-06T22:55:21.985Z,100662.18
2018-05-06T22:57:51.698Z,100665.61
2018-05-06T23:00:21.481Z,100664.78
2018-05-06T23:02:51.145Z,100656.94
2018-05-06T23:05:20.749Z,100652.29
2018-05-06T23:07:50.728Z,100656.10
2018-05-06T23:10:20.493Z,100655.23
2018-05-06T23:12:50.083Z,100650.45
2018-05-06T23:15:19.880Z,100648.51
2018-05-06T23:17:49.582Z,100646.08
2018-05-06T23:20:19.285Z,100654.83
2018-05-06T23:22:48.966Z,100641.16
2018-05-06T23:25:18.598Z,100642.84
2018-05-06T23:27:48.214Z,100645.00
2018-05-06T23:30:17.958Z,100644.55
2018-05-06T23:32:47.626Z,100645.48
2018-05-06T23:35:17.400Z,100641.11
2018-05-06T23:37:47.140Z,100637.56
2018-05-06T23:40:16.670Z,100633.78
2018-05-06T23:42:46.350Z,100638.97
2018-05-06T23:45:16.061Z,100640.70
2018-05-06T23:47:45.626Z,100643.34
2018-05-06T23:50:15.262Z,100643.34
2018-05-06T23:52:45.008Z,100637.24
2018-05-06T23:55:14.677Z,100641.61
2018-05-06T23:57:44.564Z,100638.11
